Time;durP1;ratioP1;P1;durP2;ratioP2;P2;SDS_P1;SDS_P2;PMS_P1;PMS_P2;Temp;Humidity;BMP_temperature;BMP_pressure;BME280_temperature;BME280_humidity;BME280_pressure;Samples;Min_cycle;Max_cycle;Signal;HPM_P1;HPM_P2
2021/04/03 00:01:51;;;;;;;1.52;1.10;;;;;;;19.21;31.86;96024.94;5068480;28;20072;-55
2021/04/03 00:04:17;;;;;;;1.35;0.90;;;;;;;19.19;31.63;96024.41;5069353;28;20060;-54
2021/04/03 00:06:42;;;;;;;1.42;1.02;;;;;;;19.18;31.66;96026.31;5068045;28;20063;-53
2021/04/03 00:09:08;;;;;;;1.42;1.33;;;;;;;19.17;31.73;96027.41;5067931;28;20708;-54
2021/04/03 00:11:33;;;;;;;1.30;1.30;;;;;;;19.16;31.82;96031.22;5067660;28;20071;-53
2021/04/03 00:13:59;;;;;;;1.13;1.02;;;;;;;19.16;31.78;96036.66;5068282;28;20041;-52
2021/04/03 00:16:25;;;;;;;1.40;1.30;;;;;;;19.14;31.42;96043.47;5050119;28;20708;-51
2021/04/03 00:18:50;;;;;;;1.38;1.27;;;;;;;19.12;31.89;96032.88;5047528;28;20069;-53
2021/04/03 00:21:16;;;;;;;0.95;0.95;;;;;;;19.11;31.62;96042.09;5049145;28;20055;-52
2021/04/03 00:23:41;;;;;;;1.20;1.10;;;;;;;19.11;31.64;96057.59;5048228;28;20457;-52
2021/04/03 00:26:07;;;;;;;1.58;1.23;;;;;;;19.11;31.55;96054.88;5048043;28;20055;-50
2021/04/03 00:28:32;;;;;;;1.15;1.15;;;;;;;19.09;31.40;96043.47;5048132;28;20459;-54
2021/04/03 00:30:58;;;;;;;2.15;1.95;;;;;;;19.07;31.63;96035.59;5048208;28;20040;-51
2021/04/03 00:33:23;;;;;;;1.00;1.00;;;;;;;19.06;31.67;96038.63;5047739;28;20045;-54
2021/04/03 00:35:49;;;;;;;1.25;1.25;;;;;;;19.06;31.31;96044.06;5047474;28;20048;-52
2021/04/03 00:38:15;;;;;;;1.33;1.30;;;;;;;19.05;31.38;96045.94;5048620;28;20184;-50
2021/04/03 00:40:47;;;;;;;1.33;1.25;;;;;;;19.03;31.53;96043.53;5046991;28;20076;-53
2021/04/03 00:43:20;;;;;;;1.13;1.13;;;;;;;19.02;31.49;96041.09;5047168;28;20466;-52
2021/04/03 00:45:46;;;;;;;1.20;1.20;;;;;;;19.01;31.72;96043.00;5048146;28;20157;-51
2021/04/03 00:48:12;;;;;;;1.33;1.23;;;;;;;19.00;31.72;96044.06;5062921;28;20056;-51
2021/04/03 00:50:50;;;;;;;1.13;1.13;;;;;;;18.98;31.58;96034.59;5047028;28;20140;-58
2021/04/03 00:53:18;;;;;;;1.42;1.33;;;;;;;18.99;31.77;96030.78;5052447;28;20411;-55
2021/04/03 00:55:44;;;;;;;1.60;1.45;;;;;;;18.96;31.56;96020.50;5068517;28;20037;-52
2021/04/03 00:58:09;;;;;;;1.13;1.10;;;;;;;18.96;31.50;96020.50;5066112;28;20040;-53
2021/04/03 01:00:35;;;;;;;1.33;1.25;;;;;;;18.94;31.84;96023.50;5066808;28;20080;-53
2021/04/03 01:03:01;;;;;;;1.05;1.05;;;;;;;18.94;31.65;96026.19;5066391;28;20040;-53
2021/04/03 01:05:27;;;;;;;1.27;1.20;;;;;;;18.92;31.73;96025.66;5066712;28;20055;-54
2021/04/03 01:07:53;;;;;;;1.08;1.00;;;;;;;18.91;31.74;96015.09;5067187;28;20052;-52
2021/04/03 01:10:20;;;;;;;1.15;1.05;;;;;;;18.90;31.56;96010.78;5067221;28;20055;-53
2021/04/03 01:13:15;;;;;;;1.30;1.20;;;;;;;18.89;31.92;96009.16;5066963;28;20056;-53
2021/04/03 01:16:20;;;;;;;1.38;1.20;;;;;;;18.88;31.76;96002.09;5049251;28;20131;-54
2021/04/03 01:18:52;;;;;;;1.10;1.10;;;;;;;18.87;31.74;96008.63;5066680;28;20504;-53
2021/04/03 01:21:42;;;;;;;1.00;1.00;;;;;;;18.84;31.67;96009.97;5067727;28;20044;-55
2021/04/03 01:24:26;;;;;;;1.27;1.02;;;;;;;18.83;31.37;96011.09;5051342;28;20343;-54
2021/04/03 01:27:16;;;;;;;1.42;1.40;;;;;;;18.82;31.66;96014.88;5066825;28;20048;-52
2021/04/03 01:29:54;;;;;;;1.95;1.15;;;;;;;18.80;31.71;96011.63;5066964;28;20087;-54
2021/04/03 01:32:31;;;;;;;1.30;1.20;;;;;;;18.78;31.62;96020.09;5065220;28;20411;-54
2021/04/03 01:34:57;;;;;;;1.10;1.10;;;;;;;18.78;31.55;96011.06;5065173;28;20052;-54
2021/04/03 01:37:23;;;;;;;1.02;1.02;;;;;;;18.77;31.94;96004.03;5049184;28;20048;-52
2021/04/03 01:39:50;;;;;;;1.02;1.02;;;;;;;18.75;31.64;96003.50;5049038;28;20105;-52
2021/04/03 01:42:18;;;;;;;1.08;1.08;;;;;;;18.72;31.51;95983.19;5066762;28;20082;-50
2021/04/03 01:44:48;;;;;;;1.08;1.08;;;;;;;18.74;31.53;95991.03;5049591;28;20056;-52
2021/04/03 01:47:15;;;;;;;1.08;1.08;;;;;;;18.73;31.57;96002.97;5066872;28;20186;-51
2021/04/03 01:49:41;;;;;;;1.25;1.25;;;;;;;18.72;31.78;96002.19;5065295;28;20412;-52
2021/04/03 01:52:06;;;;;;;1.40;1.30;;;;;;;18.72;31.35;95998.63;5048039;28;20059;-54
2021/04/03 01:54:32;;;;;;;1.15;1.05;;;;;;;18.70;31.67;96004.34;5048353;28;20810;-54
2021/04/03 01:56:58;;;;;;;1.17;1.17;;;;;;;18.70;31.79;96003.53;5064105;28;20453;-53
2021/04/03 01:59:23;;;;;;;1.27;1.20;;;;;;;18.69;31.49;96004.63;5064618;28;20139;-53
2021/04/03 02:01:51;;;;;;;1.45;1.30;;;;;;;18.68;31.64;96008.41;5067169;28;20122;-52
2021/04/03 02:04:17;;;;;;;1.23;1.23;;;;;;;18.67;31.70;95999.47;5065669;28;20084;-54
2021/04/03 02:06:43;;;;;;;1.02;1.02;;;;;;;18.66;31.51;95994.31;5064602;28;20071;-54
2021/04/03 02:09:10;;;;;;;1.10;1.10;;;;;;;18.65;31.77;95990.81;5081990;28;20360;-56
2021/04/03 02:11:36;;;;;;;1.10;1.10;;;;;;;18.63;31.61;95993.00;5081815;28;20109;-54
2021/04/03 02:14:02;;;;;;;1.25;1.15;;;;;;;18.63;31.54;95991.13;5081476;28;20072;-54
2021/04/03 02:16:29;;;;;;;1.60;1.50;;;;;;;18.63;31.79;95987.56;5064696;28;20602;-54
2021/04/03 02:18:56;;;;;;;1.20;1.10;;;;;;;18.62;31.60;95985.97;5065136;28;20052;-53
2021/04/03 02:21:21;;;;;;;1.88;1.70;;;;;;;18.60;31.84;95994.38;5081001;28;20044;-55
2021/04/03 02:23:47;;;;;;;1.33;1.23;;;;;;;18.60;31.75;95988.16;5081681;28;20171;-53
2021/04/03 02:26:13;;;;;;;1.30;1.30;;;;;;;18.58;31.44;95985.69;5082058;28;20048;-53
2021/04/03 02:28:38;;;;;;;1.17;1.17;;;;;;;18.56;31.68;95985.19;5065971;28;20079;-55
2021/04/03 02:31:04;;;;;;;1.27;1.13;;;;;;;18.56;31.84;95985.19;5065542;28;20072;-54
2021/04/03 02:33:30;;;;;;;1.45;1.40;;;;;;;18.55;31.90;95983.56;5065682;28;20056;-53
2021/04/03 02:35:55;;;;;;;1.17;1.08;;;;;;;18.55;31.58;95980.03;5066200;28;20131;-53
2021/04/03 02:38:21;;;;;;;1.15;1.10;;;;;;;18.54;31.41;95981.94;5065497;28;20048;-53
2021/04/03 02:40:46;;;;;;;1.33;1.33;;;;;;;18.52;31.81;95977.88;5065069;28;20064;-55
2021/04/03 02:43:47;;;;;;;1.10;1.10;;;;;;;18.51;31.75;95970.81;5065958;28;20083;-53
2021/04/03 02:46:36;;;;;;;2.08;1.17;;;;;;;18.49;31.86;95973.84;5081189;28;20048;-54
2021/04/03 02:49:07;;;;;;;1.85;1.35;;;;;;;18.48;31.45;95974.91;5064418;28;20094;-52
2021/04/03 02:51:37;;;;;;;2.30;1.40;;;;;;;18.46;31.72;95979.81;5064730;28;20049;-54
2021/04/03 02:54:06;;;;;;;1.50;1.40;;;;;;;18.46;31.78;95974.38;5063972;28;20044;-53
2021/04/03 02:56:32;;;;;;;1.10;1.10;;;;;;;18.46;31.93;95976.28;5063273;28;20063;-53
2021/04/03 02:58:57;;;;;;;1.30;1.30;;;;;;;18.44;31.61;95981.97;5064824;28;20136;-54
2021/04/03 03:01:23;;;;;;;1.20;1.10;;;;;;;18.42;31.52;95979.53;5064613;28;20052;-52
2021/04/03 03:03:49;;;;;;;1.48;1.40;;;;;;;18.42;31.72;95978.75;5064507;28;20155;-53
2021/04/03 03:06:15;;;;;;;1.23;1.17;;;;;;;18.41;31.78;95982.56;5065419;28;20118;-54
2021/04/03 03:08:41;;;;;;;1.17;1.17;;;;;;;18.39;31.70;95979.31;5068413;28;20137;-53
2021/04/03 03:11:06;;;;;;;1.42;1.30;;;;;;;18.38;31.70;95975.78;5051691;28;20131;-53
2021/04/03 03:13:33;;;;;;;1.10;1.10;;;;;;;18.38;31.86;95974.97;5067810;28;20106;-54
2021/04/03 03:16:01;;;;;;;1.27;1.27;;;;;;;18.37;31.64;95970.66;5068372;28;20052;-54
2021/04/03 03:18:27;;;;;;;1.17;1.17;;;;;;;18.36;31.75;95972.56;5051624;28;20075;-54
2021/04/03 03:20:52;;;;;;;1.55;1.45;;;;;;;18.36;31.71;95969.00;5067409;28;20083;-55
2021/04/03 03:23:18;;;;;;;1.13;1.13;;;;;;;18.35;31.63;95970.91;5068097;28;20076;-53
2021/04/03 03:25:43;;;;;;;1.88;1.50;;;;;;;18.34;31.43;95965.75;5048975;28;20447;-54
2021/04/03 03:28:09;;;;;;;1.17;1.08;;;;;;;18.33;31.81;95966.88;5067689;28;20603;-52
2021/04/03 03:30:35;;;;;;;1.58;1.48;;;;;;;18.31;31.58;95967.13;5067611;28;20488;-55
2021/04/03 03:33:01;;;;;;;1.80;1.30;;;;;;;18.30;31.77;95965.53;5067925;28;20052;-51
2021/04/03 03:35:27;;;;;;;1.20;1.20;;;;;;;18.30;31.60;95972.84;5067548;28;20059;-51
2021/04/03 03:37:53;;;;;;;1.20;1.20;;;;;;;18.28;31.38;95973.13;5068565;28;20129;-53
2021/04/03 03:40:19;;;;;;;1.20;1.20;;;;;;;18.27;31.61;95968.78;5084850;28;20056;-52
2021/04/03 03:42:45;;;;;;;1.30;1.20;;;;;;;18.28;31.70;95964.16;5085446;28;20127;-51
2021/04/03 03:45:11;;;;;;;1.50;1.40;;;;;;;18.27;31.62;95960.66;5067154;28;20048;-52
2021/04/03 03:47:37;;;;;;;1.33;1.23;;;;;;;18.26;31.51;95960.91;5068547;28;20048;-51
2021/04/03 03:50:07;;;;;;;1.33;1.23;;;;;;;18.25;31.85;95962.03;5068839;28;20052;-54
2021/04/03 03:52:33;;;;;;;1.23;1.20;;;;;;;18.23;31.53;95965.00;5067548;28;20067;-54
2021/04/03 03:54:59;;;;;;;1.10;1.10;;;;;;;18.21;31.69;95965.28;5068528;28;20856;-53
2021/04/03 03:57:24;;;;;;;1.80;1.40;;;;;;;18.20;31.50;95966.38;5068965;28;20080;-54
2021/04/03 03:59:50;;;;;;;1.45;1.40;;;;;;;18.20;31.74;95963.66;5068344;28;20673;-53
2021/04/03 04:02:16;;;;;;;1.00;1.00;;;;;;;18.18;31.46;95968.56;5068632;28;20052;-54
2021/04/03 04:04:41;;;;;;;1.15;1.15;;;;;;;18.17;31.52;95966.94;5067959;28;20102;-53
2021/04/03 04:07:07;;;;;;;1.50;1.40;;;;;;;18.17;31.82;95969.63;5068651;28;20068;-54
2021/04/03 04:09:32;;;;;;;1.60;1.50;;;;;;;18.16;31.77;95968.03;5068175;28;20048;-53
2021/04/03 04:12:05;;;;;;;1.48;1.33;;;;;;;18.15;31.80;95971.81;5067577;28;20543;-53
2021/04/03 04:14:34;;;;;;;1.52;1.42;;;;;;;18.15;31.70;95971.00;5067856;28;20060;-55
2021/04/03 04:16:59;;;;;;;1.30;1.30;;;;;;;18.13;31.46;95982.13;5068141;28;20055;-53
2021/04/03 04:19:25;;;;;;;1.00;1.00;;;;;;;18.12;31.51;95980.50;5065522;28;20044;-55
2021/04/03 04:21:51;;;;;;;1.80;1.70;;;;;;;18.12;31.76;95982.41;5067837;28;20052;-54
2021/04/03 04:24:16;;;;;;;1.55;1.45;;;;;;;18.10;31.56;95981.88;5069018;28;20048;-54
2021/04/03 04:26:42;;;;;;;1.30;1.30;;;;;;;18.09;31.49;95981.09;5067766;28;20172;-54
2021/04/03 04:29:07;;;;;;;1.30;1.20;;;;;;;18.08;31.62;95982.16;5067685;28;20048;-53
2021/04/03 04:31:33;;;;;;;1.58;1.48;;;;;;;18.07;31.49;95988.69;5068214;28;20461;-54
2021/04/03 04:33:59;;;;;;;1.50;1.40;;;;;;;18.06;31.73;95984.34;5067716;28;20048;-56
2021/04/03 04:36:24;;;;;;;1.77;1.67;;;;;;;18.04;31.93;95981.09;5067817;28;20041;-54
2021/04/03 04:38:50;;;;;;;1.52;1.42;;;;;;;18.04;31.45;95978.38;5067851;28;20044;-53
2021/04/03 04:41:15;;;;;;;2.22;1.67;;;;;;;18.02;31.54;95981.34;5069071;28;20079;-53
2021/04/03 04:43:41;;;;;;;1.50;1.40;;;;;;;18.01;31.45;95982.47;5067508;28;20083;-54
2021/04/03 04:46:06;;;;;;;1.80;1.70;;;;;;;18.00;31.47;95997.06;5067341;28;20526;-52
2021/04/03 04:48:32;;;;;;;1.75;1.65;;;;;;;18.00;31.79;95985.44;5067515;28;20128;-53
2021/04/03 04:50:57;;;;;;;1.80;1.63;;;;;;;17.99;31.52;95989.25;5067748;28;20067;-54
2021/04/03 04:53:23;;;;;;;1.70;1.60;;;;;;;17.99;31.48;95991.97;5067217;28;20492;-52
2021/04/03 04:55:49;;;;;;;1.67;1.58;;;;;;;17.97;31.52;95994.94;5068158;28;20129;-54
2021/04/03 04:58:16;;;;;;;1.83;1.73;;;;;;;17.96;31.49;95996.00;5067822;28;20045;-55
2021/04/03 05:00:41;;;;;;;1.70;1.60;;;;;;;17.95;31.75;95985.47;5067037;28;20148;-54
2021/04/03 05:03:07;;;;;;;3.30;2.13;;;;;;;17.95;31.46;95990.88;5067056;28;20194;-54
2021/04/03 05:05:32;;;;;;;1.60;1.50;;;;;;;17.93;31.71;95988.44;5067015;28;20048;-55
2021/04/03 05:07:58;;;;;;;1.98;1.88;;;;;;;17.91;31.73;95987.91;5067313;28;20049;-55
2021/04/03 05:10:24;;;;;;;1.70;1.60;;;;;;;17.91;31.49;95987.91;5066752;28;20474;-54
2021/04/03 05:12:49;;;;;;;2.28;2.10;;;;;;;17.91;31.89;95995.22;5067082;28;20040;-55
2021/04/03 05:15:15;;;;;;;2.15;2.05;;;;;;;17.89;31.63;95998.22;5067924;28;20146;-52
2021/04/03 05:17:40;;;;;;;2.10;1.92;;;;;;;17.88;31.39;95999.28;5066964;28;20076;-52
2021/04/03 05:20:07;;;;;;;1.95;1.85;;;;;;;17.88;31.70;95995.75;5066620;28;20159;-54
2021/04/03 05:22:32;;;;;;;2.28;2.08;;;;;;;17.86;31.69;95987.09;5066483;28;20510;-53
2021/04/03 05:24:58;;;;;;;2.28;2.05;;;;;;;17.85;31.40;96002.56;5066303;28;20060;-50
2021/04/03 05:27:23;;;;;;;2.35;2.15;;;;;;;17.84;31.85;96003.66;5066570;28;20438;-53
2021/04/03 05:29:49;;;;;;;2.42;2.22;;;;;;;17.85;31.52;96004.47;5067350;28;20052;-55
2021/04/03 05:32:15;;;;;;;2.08;1.92;;;;;;;17.83;31.58;96010.16;5067143;28;20090;-54
2021/04/03 05:34:40;;;;;;;2.22;2.03;;;;;;;17.81;31.74;96010.38;5066120;28;20196;-52
2021/04/03 05:37:06;;;;;;;1.88;1.77;;;;;;;17.81;31.52;96017.69;5066651;28;20412;-52
2021/04/03 05:39:31;;;;;;;2.50;2.30;;;;;;;17.79;31.65;96017.97;5067062;28;20182;-52
2021/04/03 05:41:57;;;;;;;2.55;2.35;;;;;;;17.77;31.63;96017.44;5066522;28;20527;-54
2021/04/03 05:44:22;;;;;;;2.80;2.60;;;;;;;17.77;31.73;96022.03;5066088;28;20060;-53
2021/04/03 05:46:48;;;;;;;2.30;2.15;;;;;;;17.76;31.42;96018.53;5067166;28;20072;-52
2021/04/03 05:49:14;;;;;;;2.15;1.95;;;;;;;17.74;31.46;96015.28;5065828;28;20055;-51
2021/04/03 05:51:39;;;;;;;2.72;2.45;;;;;;;17.74;31.40;96022.59;5064922;28;20075;-55
2021/04/03 05:54:05;;;;;;;2.92;2.67;;;;;;;17.73;31.52;96020.97;5066065;28;20072;-53
2021/04/03 05:56:31;;;;;;;2.92;2.72;;;;;;;17.72;31.41;96022.88;5065163;28;20048;-51
2021/04/03 05:58:56;;;;;;;3.00;2.80;;;;;;;17.71;31.30;96028.56;5064874;28;20056;-52
2021/04/03 06:01:22;;;;;;;3.00;2.38;;;;;;;17.70;31.52;96038.59;5066146;28;20125;-55
2021/04/03 06:03:48;;;;;;;3.10;2.90;;;;;;;17.70;31.62;96044.00;5065619;28;20059;-52
2021/04/03 06:06:14;;;;;;;2.80;2.40;;;;;;;17.69;31.70;96033.44;5065071;28;20048;-53
2021/04/03 06:08:39;;;;;;;3.55;2.80;;;;;;;17.68;31.60;96031.81;5066060;28;20052;-52
2021/04/03 06:11:17;;;;;;;2.95;2.75;;;;;;;17.66;31.38;96034.00;5066088;28;20052;-51
2021/04/03 06:13:56;;;;;;;3.08;2.88;;;;;;;17.66;31.66;96039.41;5065748;28;20055;-51
2021/04/03 06:16:28;;;;;;;3.00;2.78;;;;;;;17.65;31.52;96040.47;5064509;28;20056;-53
2021/04/03 06:19:13;;;;;;;3.30;2.95;;;;;;;17.61;31.61;96035.63;5066032;28;20051;-53
2021/04/03 06:21:40;;;;;;;3.22;2.92;;;;;;;17.61;31.29;96035.63;5065849;28;20343;-51
2021/04/03 06:24:30;;;;;;;3.30;3.05;;;;;;;17.59;31.60;96035.09;5065612;28;20053;-53
2021/04/03 06:26:56;;;;;;;3.47;3.17;;;;;;;17.59;31.59;96037.78;5065685;28;20048;-50
2021/04/03 06:29:26;;;;;;;3.42;3.13;;;;;;;17.58;31.20;96038.84;5065964;28;20059;-50
2021/04/03 06:31:55;;;;;;;3.50;3.20;;;;;;;17.57;31.69;96034.53;5065772;28;20060;-53
2021/04/03 06:34:29;;;;;;;3.13;2.92;;;;;;;17.56;31.49;96042.94;5064188;28;20052;-52
2021/04/03 06:36:54;;;;;;;3.08;2.85;;;;;;;17.56;31.49;96051.88;5065682;28;20048;-53
2021/04/03 06:39:20;;;;;;;3.85;3.45;;;;;;;17.55;31.52;96055.66;5065256;28;20079;-52
2021/04/03 06:41:46;;;;;;;3.80;3.47;;;;;;;17.55;31.63;96050.25;5067014;28;20074;-51
2021/04/03 06:44:12;;;;;;;5.20;2.90;;;;;;;17.53;31.64;96049.72;5070200;28;20578;-50
2021/04/03 06:46:42;;;;;;;3.47;3.17;;;;;;;17.53;31.54;96054.31;5070125;28;20098;-52
2021/04/03 06:49:08;;;;;;;3.92;3.53;;;;;;;17.52;31.28;96052.69;5069713;28;20082;-52
2021/04/03 06:51:33;;;;;;;3.70;3.40;;;;;;;17.52;31.65;96052.69;5069446;28;20139;-54
2021/04/03 06:54:00;;;;;;;4.05;3.60;;;;;;;17.51;31.68;96051.06;5069872;28;20121;-54
2021/04/03 06:56:26;;;;;;;4.40;4.00;;;;;;;17.51;31.82;96054.59;5069617;28;20399;-52
2021/04/03 06:58:57;;;;;;;4.00;3.55;;;;;;;17.49;31.37;96050.53;5069386;28;20194;-54
2021/04/03 07:01:24;;;;;;;3.63;3.33;;;;;;;17.49;31.40;96055.94;5069978;28;20140;-55
2021/04/03 07:03:53;;;;;;;3.88;3.45;;;;;;;17.48;31.30;96059.72;5069439;28;20131;-52
2021/04/03 07:06:22;;;;;;;3.58;3.28;;;;;;;17.47;31.69;96060.81;5069169;28;20071;-53
2021/04/03 07:08:49;;;;;;;4.07;3.72;;;;;;;17.47;31.52;96058.13;5069768;28;20404;-55
2021/04/03 07:11:15;;;;;;;4.38;3.60;;;;;;;17.46;31.36;96062.69;5070717;28;20507;-55
2021/04/03 07:13:41;;;;;;;4.00;3.60;;;;;;;17.45;31.43;96065.69;5069114;28;20055;-55
2021/04/03 07:16:06;;;;;;;4.35;3.83;;;;;;;17.44;31.61;96056.75;5051602;28;20052;-53
2021/04/03 07:18:33;;;;;;;4.90;4.15;;;;;;;17.43;31.29;96052.41;5068389;28;20064;-55
2021/04/03 07:20:59;;;;;;;4.15;3.78;;;;;;;17.43;31.63;96055.94;5067763;28;20048;-54
2021/04/03 07:23:25;;;;;;;4.18;3.83;;;;;;;17.43;31.38;96055.13;5066897;28;20436;-55
2021/04/03 07:25:50;;;;;;;4.03;3.63;;;;;;;17.42;31.54;96062.44;5067910;28;20098;-54
2021/04/03 07:28:16;;;;;;;4.43;4.03;;;;;;;17.41;31.44;96068.94;5051964;28;20527;-54
2021/04/03 07:30:46;;;;;;;4.25;3.90;;;;;;;17.40;31.58;96072.72;5050814;28;20045;-56
2021/04/03 07:33:21;;;;;;;4.40;3.67;;;;;;;17.38;31.58;96074.91;5068517;28;20167;-53
2021/04/03 07:35:56;;;;;;;4.18;3.70;;;;;;;17.39;31.38;96070.28;5068996;28;20471;-54
2021/04/03 07:38:23;;;;;;;3.95;3.60;;;;;;;17.40;31.66;96066.47;5068455;28;20056;-55
2021/04/03 07:40:52;;;;;;;4.40;4.00;;;;;;;17.38;31.64;96069.47;5069170;28;20044;-54
2021/04/03 07:43:34;;;;;;;4.65;4.25;;;;;;;17.37;31.74;96072.44;5069055;28;20075;-53
2021/04/03 07:46:20;;;;;;;4.90;4.20;;;;;;;17.37;31.73;96067.84;5068264;28;20060;-54
2021/04/03 07:48:47;;;;;;;4.45;4.05;;;;;;;17.36;31.79;96077.06;5068821;28;20699;-54
2021/04/03 07:51:22;;;;;;;4.10;3.70;;;;;;;17.35;31.46;96080.84;5068004;28;20044;-55
2021/04/03 07:53:48;;;;;;;4.47;4.07;;;;;;;17.36;31.73;96081.63;5068821;28;20064;-53
2021/04/03 07:56:15;;;;;;;5.28;3.90;;;;;;;17.35;31.48;96086.25;5068935;28;20508;-54
2021/04/03 07:58:50;;;;;;;4.10;3.70;;;;;;;17.34;31.34;96076.53;5068269;28;20416;-54
2021/04/03 08:01:17;;;;;;;4.47;4.07;;;;;;;17.33;31.30;96074.06;5069270;28;20443;-55
2021/04/03 08:04:00;;;;;;;4.00;3.70;;;;;;;17.32;31.53;96086.81;5067214;28;20098;-53
2021/04/03 08:06:33;;;;;;;4.32;3.92;;;;;;;17.32;31.72;96086.81;5067617;28;20110;-54
2021/04/03 08:09:00;;;;;;;4.47;4.07;;;;;;;17.32;31.36;96086.81;5067693;28;20052;-56
2021/04/03 08:11:25;;;;;;;4.43;4.00;;;;;;;17.32;31.53;96089.50;5067069;28;20059;-56
2021/04/03 08:13:52;;;;;;;3.97;3.58;;;;;;;17.32;31.33;96091.41;5068427;28;20056;-54
2021/04/03 08:16:19;;;;;;;4.53;4.10;;;;;;;17.31;31.65;96081.66;5068517;28;20060;-54
2021/04/03 08:18:46;;;;;;;4.45;4.05;;;;;;;17.30;31.27;96083.56;5068130;28;20044;-53
2021/04/03 08:21:12;;;;;;;4.50;4.10;;;;;;;17.30;31.46;96096.28;5068369;28;20083;-55
2021/04/03 08:23:40;;;;;;;5.30;3.90;;;;;;;17.30;31.63;96094.38;5067718;28;20460;-54
2021/04/03 08:26:06;;;;;;;3.95;3.65;;;;;;;17.29;31.36;96076.50;5068119;28;20071;-56
2021/04/03 08:28:31;;;;;;;4.60;4.10;;;;;;;17.29;31.28;96092.75;5067910;28;20072;-54
2021/04/03 08:30:58;;;;;;;5.25;4.32;;;;;;;17.28;31.39;96090.31;5068126;28;20130;-54
2021/04/03 08:33:23;;;;;;;4.70;4.15;;;;;;;17.29;31.61;96092.75;5067925;28;20062;-53
2021/04/03 08:35:50;;;;;;;5.50;4.18;;;;;;;17.29;31.72;96098.16;5067688;28;20044;-53
2021/04/03 08:38:24;;;;;;;4.43;4.03;;;;;;;17.29;31.47;96103.56;5068642;28;20548;-55
2021/04/03 08:40:51;;;;;;;3.97;3.67;;;;;;;17.28;31.36;96107.38;5066066;28;20064;-54
2021/04/03 08:43:20;;;;;;;5.10;4.40;;;;;;;17.28;31.76;96104.66;5067680;28;20821;-54
2021/04/03 08:45:46;;;;;;;3.75;3.45;;;;;;;17.28;31.61;96101.97;5068257;28;20070;-54
2021/04/03 08:48:12;;;;;;;4.25;3.63;;;;;;;17.27;31.78;96092.19;5067060;28;20128;-54
2021/04/03 08:50:38;;;;;;;3.92;3.38;;;;;;;17.26;31.59;96095.19;5066799;28;20045;-54
2021/04/03 08:53:04;;;;;;;4.18;3.78;;;;;;;17.25;31.57;96101.66;5066709;28;20143;-53
2021/04/03 08:55:30;;;;;;;4.10;3.70;;;;;;;17.26;31.59;96097.91;5067584;28;20057;-54
2021/04/03 08:57:56;;;;;;;4.60;4.20;;;;;;;17.25;31.49;96099.78;5067677;28;20048;-53
2021/04/03 09:00:22;;;;;;;4.97;4.20;;;;;;;17.25;31.50;96107.91;5066995;28;20052;-53
2021/04/03 09:02:47;;;;;;;4.45;4.03;;;;;;;17.24;31.58;96100.88;5067817;28;20056;-54
2021/04/03 09:05:14;;;;;;;4.32;3.92;;;;;;;17.26;31.38;96092.50;5048199;28;20052;-54
2021/04/03 09:07:43;;;;;;;4.53;4.13;;;;;;;17.25;31.50;96098.97;5048692;28;20076;-54
2021/04/03 09:10:08;;;;;;;4.35;3.88;;;;;;;17.24;31.68;96092.75;5067280;28;20059;-53
2021/04/03 09:12:34;;;;;;;4.15;3.80;;;;;;;17.24;31.54;96100.88;5066812;28;20404;-53
2021/04/03 09:15:06;;;;;;;4.20;3.80;;;;;;;17.25;31.35;96097.06;5066923;28;20084;-55
2021/04/03 09:17:32;;;;;;;4.57;4.18;;;;;;;17.25;31.45;96099.78;5066260;28;20048;-54
2021/04/03 09:20:06;;;;;;;4.32;3.92;;;;;;;17.23;31.60;96099.22;5048672;28;20846;-55
2021/04/03 09:22:39;;;;;;;5.00;4.60;;;;;;;17.24;31.50;96097.34;5065333;28;20163;-54
2021/04/03 09:25:11;;;;;;;4.20;3.80;;;;;;;17.22;31.35;96101.13;5064123;28;20958;-53
2021/04/03 09:27:37;;;;;;;4.35;3.90;;;;;;;17.24;31.44;96092.75;5066357;28;20056;-53
2021/04/03 09:30:05;;;;;;;4.40;4.00;;;;;;;17.25;31.74;96096.25;5066407;28;20094;-52
2021/04/03 09:32:43;;;;;;;4.82;4.18;;;;;;;17.22;31.53;96103.84;5066251;28;20076;-52
2021/04/03 09:35:10;;;;;;;4.40;4.07;;;;;;;17.24;31.62;96095.47;5066093;28;20863;-53
2021/04/03 09:37:36;;;;;;;4.60;3.70;;;;;;;17.25;31.54;96098.97;5066061;28;20593;-55
2021/04/03 09:40:03;;;;;;;4.95;4.45;;;;;;;17.24;31.68;96095.47;5066380;28;20044;-52
2021/04/03 09:42:29;;;;;;;4.10;3.80;;;;;;;17.25;31.72;96101.66;5067051;28;20558;-51
2021/04/03 09:44:59;;;;;;;4.80;4.30;;;;;;;17.24;31.56;96098.16;5065110;28;20458;-54
2021/04/03 09:47:25;;;;;;;4.55;4.15;;;;;;;17.25;31.63;96097.06;5065732;28;20048;-51
2021/04/03 09:49:51;;;;;;;4.47;4.05;;;;;;;17.25;31.65;96101.66;5066599;28;20098;-51
2021/04/03 09:52:16;;;;;;;4.68;4.28;;;;;;;17.25;31.42;96104.38;5067316;28;20076;-53
2021/04/03 09:54:43;;;;;;;4.25;3.88;;;;;;;17.25;31.72;96097.06;5065790;28;20059;-54
2021/04/03 09:57:09;;;;;;;4.50;4.10;;;;;;;17.25;31.63;96096.25;5066057;28;20243;-53
2021/04/03 09:59:35;;;;;;;4.32;3.92;;;;;;;17.26;31.73;96092.50;5066400;28;20141;-53
2021/04/03 10:02:00;;;;;;;4.38;3.95;;;;;;;17.26;31.57;96106.81;5066348;28;20045;-53
2021/04/03 10:04:26;;;;;;;4.07;3.63;;;;;;;17.26;31.49;96098.72;5066181;28;20495;-53
2021/04/03 10:06:52;;;;;;;4.53;4.13;;;;;;;17.25;31.60;96091.66;5066403;28;20052;-51
2021/04/03 10:09:18;;;;;;;4.63;4.22;;;;;;;17.27;31.67;96083.28;5066759;28;20059;-54
2021/04/03 10:11:43;;;;;;;4.68;4.28;;;;;;;17.26;31.34;96077.06;5064727;28;20044;-55
2021/04/03 10:14:09;;;;;;;4.75;4.25;;;;;;;17.26;31.44;96079.75;5065982;28;20733;-52
2021/04/03 10:16:35;;;;;;;4.50;3.90;;;;;;;17.27;31.42;96081.38;5063682;28;20140;-51
2021/04/03 10:19:00;;;;;;;4.38;3.97;;;;;;;17.27;31.71;96078.66;5065309;28;20445;-52
2021/04/03 10:21:26;;;;;;;4.70;4.20;;;;;;;17.27;31.68;96072.44;5066148;28;20052;-54
2021/04/03 10:23:52;;;;;;;4.32;3.92;;;;;;;17.27;31.51;96078.66;5066373;28;20048;-52
2021/04/03 10:26:18;;;;;;;4.35;3.95;;;;;;;17.27;31.76;96067.84;5066255;28;20452;-53
2021/04/03 10:28:44;;;;;;;5.10;4.63;;;;;;;17.27;31.71;96070.53;5065671;28;20079;-51
2021/04/03 10:31:09;;;;;;;4.78;4.38;;;;;;;17.27;31.65;96065.13;5066187;28;20052;-52
2021/04/03 10:33:36;;;;;;;4.43;4.03;;;;;;;17.27;31.49;96065.13;5066126;28;20452;-52
2021/04/03 10:36:03;;;;;;;5.57;4.40;;;;;;;17.27;31.67;96069.75;5065577;28;20045;-52
2021/04/03 10:38:29;;;;;;;5.63;4.75;;;;;;;17.28;31.71;96069.47;5064171;28;20053;-50
2021/04/03 10:40:55;;;;;;;4.38;3.95;;;;;;;17.27;31.56;96065.13;5066214;28;20160;-51
2021/04/03 10:43:20;;;;;;;5.20;4.53;;;;;;;17.27;31.72;96067.84;5065739;28;20071;-52
2021/04/03 10:45:46;;;;;;;5.05;4.60;;;;;;;17.27;31.76;96062.41;5066605;28;20059;-51
2021/04/03 10:48:12;;;;;;;4.90;4.50;;;;;;;17.27;31.77;96061.63;5066065;28;20048;-52
2021/04/03 10:50:37;;;;;;;4.70;4.30;;;;;;;17.28;31.72;96060.56;5065445;28;20055;-54
2021/04/03 10:53:03;;;;;;;4.47;4.07;;;;;;;17.28;31.78;96055.94;5065140;28;20574;-53
2021/04/03 10:55:31;;;;;;;5.68;5.18;;;;;;;17.27;31.71;96048.88;5065091;28;20072;-54
2021/04/03 10:57:57;;;;;;;4.40;4.00;;;;;;;17.28;31.76;96055.13;5065307;28;20528;-54
2021/04/03 11:00:23;;;;;;;4.68;4.28;;;;;;;17.28;31.76;96058.66;5065510;28;20051;-55
2021/04/03 11:02:48;;;;;;;4.90;4.43;;;;;;;17.30;31.73;96055.69;5066662;28;20060;-56
2021/04/03 11:05:14;;;;;;;4.65;4.25;;;;;;;17.29;31.82;96043.22;5065998;28;20530;-55
2021/04/03 11:07:40;;;;;;;4.50;4.10;;;;;;;17.30;31.69;96039.44;5065892;28;20052;-55
2021/04/03 11:10:06;;;;;;;8.25;4.15;;;;;;;17.30;31.87;96042.16;5065188;28;20094;-55
2021/04/03 11:12:31;;;;;;;5.28;4.28;;;;;;;17.29;31.54;96038.59;5065360;28;20142;-53
2021/04/03 11:14:57;;;;;;;4.82;3.95;;;;;;;17.30;31.56;96034.03;5065279;28;20499;-55
2021/04/03 11:17:23;;;;;;;4.82;4.35;;;;;;;17.30;31.86;96040.25;5065450;28;20044;-55
2021/04/03 11:19:48;;;;;;;4.80;4.40;;;;;;;17.31;31.97;96047.25;5066408;28;20063;-55
2021/04/03 11:22:14;;;;;;;4.82;4.40;;;;;;;17.32;31.83;96048.09;5065709;28;20471;-55
2021/04/03 11:24:40;;;;;;;5.30;4.80;;;;;;;17.32;31.91;96045.41;5064872;28;20352;-55
2021/04/03 11:27:05;;;;;;;5.07;4.68;;;;;;;17.33;31.66;96055.13;5064598;28;20067;-53
2021/04/03 11:29:31;;;;;;;5.07;4.55;;;;;;;17.33;31.85;96045.09;5067823;28;20044;-53
2021/04/03 11:31:57;;;;;;;5.20;4.60;;;;;;;17.34;32.04;96043.19;5068474;28;20135;-54
2021/04/03 11:34:22;;;;;;;4.55;4.15;;;;;;;17.34;31.65;96037.78;5067066;28;20490;-54
2021/04/03 11:36:48;;;;;;;4.90;4.50;;;;;;;17.35;31.58;96040.22;5069484;28;20084;-53